sensor_id;sensor_type;location;lat;lon;timestamp;pressure;altitude;pressure_sealevel;temperature;humidity
58967;BME280;44744;51.894;5.080;2023-07-20T00:00:51;101543.82;;;16.55;79.29
58967;BME280;44744;51.894;5.080;2023-07-20T00:01:51;101544.39;;;16.55;79.57
58967;BME280;44744;51.894;5.080;2023-07-20T00:02:51;101543.41;;;16.56;79.44
58967;BME280;44744;51.894;5.080;2023-07-20T00:03:51;101547.10;;;16.57;79.57
58967;BME280;44744;51.894;5.080;2023-07-20T00:04:52;101548.52;;;16.58;79.50
58967;BME280;44744;51.894;5.080;2023-07-20T00:05:52;101545.88;;;16.57;79.56
58967;BME280;44744;51.894;5.080;2023-07-20T00:06:52;101544.55;;;16.58;79.46
58967;BME280;44744;51.894;5.080;2023-07-20T00:07:52;101545.28;;;16.58;79.30
58967;BME280;44744;51.894;5.080;2023-07-20T00:08:52;101543.99;;;16.55;79.30
58967;BME280;44744;51.894;5.080;2023-07-20T00:09:53;101541.42;;;16.54;79.39
58967;BME280;44744;51.894;5.080;2023-07-20T00:10:53;101542.64;;;16.52;79.28
58967;BME280;44744;51.894;5.080;2023-07-20T00:11:53;101544.07;;;16.52;79.55
58967;BME280;44744;51.894;5.080;2023-07-20T00:12:53;101542.80;;;16.52;79.56
58967;BME280;44744;51.894;5.080;2023-07-20T00:13:53;101544.75;;;16.52;79.59
58967;BME280;44744;51.894;5.080;2023-07-20T00:14:54;101544.05;;;16.52;79.52
58967;BME280;44744;51.894;5.080;2023-07-20T00:15:54;101545.66;;;16.52;79.40
58967;BME280;44744;51.894;5.080;2023-07-20T00:16:55;101548.88;;;16.52;79.29
58967;BME280;44744;51.894;5.080;2023-07-20T00:17:55;101549.55;;;16.52;79.39
58967;BME280;44744;51.894;5.080;2023-07-20T00:18:55;101548.84;;;16.53;79.34
58967;BME280;44744;51.894;5.080;2023-07-20T00:19:55;101549.58;;;16.52;79.35
58967;BME280;44744;51.894;5.080;2023-07-20T00:20:56;101548.66;;;16.53;79.39
58967;BME280;44744;51.894;5.080;2023-07-20T00:21:56;101546.13;;;16.53;79.27
58967;BME280;44744;51.894;5.080;2023-07-20T00:22:56;101547.61;;;16.52;79.15
58967;BME280;44744;51.894;5.080;2023-07-20T00:23:57;101552.73;;;16.53;79.19
58967;BME280;44744;51.894;5.080;2023-07-20T00:24:57;101553.30;;;16.53;79.20
58967;BME280;44744;51.894;5.080;2023-07-20T00:25:57;101555.04;;;16.51;79.28
58967;BME280;44744;51.894;5.080;2023-07-20T00:26:57;101554.51;;;16.51;79.41
58967;BME280;44744;51.894;5.080;2023-07-20T00:27:57;101556.00;;;16.50;79.29
58967;BME280;44744;51.894;5.080;2023-07-20T00:28:57;101558.23;;;16.49;79.27
58967;BME280;44744;51.894;5.080;2023-07-20T00:29:58;101557.02;;;16.45;79.40
58967;BME280;44744;51.894;5.080;2023-07-20T00:30:59;101560.11;;;16.42;79.54
58967;BME280;44744;51.894;5.080;2023-07-20T00:31:59;101559.66;;;16.38;79.58
58967;BME280;44744;51.894;5.080;2023-07-20T00:32:59;101558.40;;;16.33;79.62
58967;BME280;44744;51.894;5.080;2023-07-20T00:33:59;101560.02;;;16.28;79.45
58967;BME280;44744;51.894;5.080;2023-07-20T00:34:59;101558.66;;;16.24;79.48
58967;BME280;44744;51.894;5.080;2023-07-20T00:35:59;101557.48;;;16.20;79.49
58967;BME280;44744;51.894;5.080;2023-07-20T00:36:59;101557.19;;;16.16;79.82
58967;BME280;44744;51.894;5.080;2023-07-20T00:38:00;101556.07;;;16.14;79.62
58967;BME280;44744;51.894;5.080;2023-07-20T00:39:00;101556.27;;;16.12;79.83
58967;BME280;44744;51.894;5.080;2023-07-20T00:40:00;101555.85;;;16.10;79.73
58967;BME280;44744;51.894;5.080;2023-07-20T00:41:00;101557.09;;;16.07;79.97
58967;BME280;44744;51.894;5.080;2023-07-20T00:42:00;101555.05;;;16.06;80.07
58967;BME280;44744;51.894;5.080;2023-07-20T00:43:00;101553.89;;;16.04;79.93
58967;BME280;44744;51.894;5.080;2023-07-20T00:44:01;101554.14;;;16.03;80.06
58967;BME280;44744;51.894;5.080;2023-07-20T00:45:01;101553.54;;;16.04;80.05
58967;BME280;44744;51.894;5.080;2023-07-20T00:46:01;101551.91;;;16.05;80.06
58967;BME280;44744;51.894;5.080;2023-07-20T00:47:01;101554.15;;;16.06;80.34
58967;BME280;44744;51.894;5.080;2023-07-20T00:48:02;101553.13;;;16.08;80.29
58967;BME280;44744;51.894;5.080;2023-07-20T00:49:02;101550.92;;;16.09;80.06
58967;BME280;44744;51.894;5.080;2023-07-20T00:50:02;101550.17;;;16.09;80.06
58967;BME280;44744;51.894;5.080;2023-07-20T00:51:02;101553.66;;;16.11;80.07
58967;BME280;44744;51.894;5.080;2023-07-20T00:52:03;101550.74;;;16.12;80.13
58967;BME280;44744;51.894;5.080;2023-07-20T00:53:04;101549.98;;;16.12;80.01
58967;BME280;44744;51.894;5.080;2023-07-20T00:54:05;101550.39;;;16.14;79.97
58967;BME280;44744;51.894;5.080;2023-07-20T00:55:06;101553.38;;;16.15;80.06
58967;BME280;44744;51.894;5.080;2023-07-20T00:56:07;101550.86;;;16.15;79.86
58967;BME280;44744;51.894;5.080;2023-07-20T00:57:07;101549.53;;;16.16;79.92
58967;BME280;44744;51.894;5.080;2023-07-20T00:58:07;101549.85;;;16.17;79.98
58967;BME280;44744;51.894;5.080;2023-07-20T00:59:08;101552.13;;;16.17;79.90
58967;BME280;44744;51.894;5.080;2023-07-20T01:00:09;101552.27;;;16.18;79.96
58967;BME280;44744;51.894;5.080;2023-07-20T01:01:09;101555.40;;;16.19;79.74
58967;BME280;44744;51.894;5.080;2023-07-20T01:02:09;101555.05;;;16.19;79.85
58967;BME280;44744;51.894;5.080;2023-07-20T01:03:09;101555.27;;;16.18;79.88
58967;BME280;44744;51.894;5.080;2023-07-20T01:04:10;101557.23;;;16.19;79.82
58967;BME280;44744;51.894;5.080;2023-07-20T01:05:10;101554.56;;;16.18;79.81
58967;BME280;44744;51.894;5.080;2023-07-20T01:07:25;101558.88;;;16.18;79.79
58967;BME280;44744;51.894;5.080;2023-07-20T01:08:43;101557.79;;;16.18;79.78
58967;BME280;44744;51.894;5.080;2023-07-20T01:09:52;101558.13;;;16.18;79.77
58967;BME280;44744;51.894;5.080;2023-07-20T01:11:00;101558.76;;;16.17;79.61
58967;BME280;44744;51.894;5.080;2023-07-20T01:12:05;101555.92;;;16.17;79.70
58967;BME280;44744;51.894;5.080;2023-07-20T01:13:06;101559.16;;;16.16;79.71
58967;BME280;44744;51.894;5.080;2023-07-20T01:14:07;101557.78;;;16.15;79.80
58967;BME280;44744;51.894;5.080;2023-07-20T01:15:08;101556.77;;;16.15;79.72
58967;BME280;44744;51.894;5.080;2023-07-20T01:16:08;101560.33;;;16.15;79.71
58967;BME280;44744;51.894;5.080;2023-07-20T01:17:08;101564.62;;;16.15;79.94
58967;BME280;44744;51.894;5.080;2023-07-20T01:18:08;101564.97;;;16.15;79.70
58967;BME280;44744;51.894;5.080;2023-07-20T01:19:09;101563.92;;;16.15;79.82
58967;BME280;44744;51.894;5.080;2023-07-20T01:20:10;101565.55;;;16.14;79.64
58967;BME280;44744;51.894;5.080;2023-07-20T01:21:12;101567.14;;;16.14;79.84
58967;BME280;44744;51.894;5.080;2023-07-20T01:23:41;101569.70;;;16.13;79.51
58967;BME280;44744;51.894;5.080;2023-07-20T01:28:35;101569.48;;;16.09;79.67
58967;BME280;44744;51.894;5.080;2023-07-20T01:30:55;101566.66;;;16.05;79.59
58967;BME280;44744;51.894;5.080;2023-07-20T01:31:59;101567.48;;;16.03;79.56
58967;BME280;44744;51.894;5.080;2023-07-20T01:33:00;101565.56;;;16.03;79.39
58967;BME280;44744;51.894;5.080;2023-07-20T01:34:02;101565.13;;;16.02;79.36
58967;BME280;44744;51.894;5.080;2023-07-20T01:35:02;101567.10;;;15.99;79.38
58967;BME280;44744;51.894;5.080;2023-07-20T01:36:04;101566.52;;;15.97;79.46
58967;BME280;44744;51.894;5.080;2023-07-20T01:37:05;101566.96;;;15.95;79.41
58967;BME280;44744;51.894;5.080;2023-07-20T01:38:06;101563.16;;;15.94;79.38
58967;BME280;44744;51.894;5.080;2023-07-20T01:39:07;101566.09;;;15.93;79.47
58967;BME280;44744;51.894;5.080;2023-07-20T01:40:08;101568.13;;;15.92;79.35
58967;BME280;44744;51.894;5.080;2023-07-20T01:41:08;101565.86;;;15.88;79.38
58967;BME280;44744;51.894;5.080;2023-07-20T01:42:09;101564.13;;;15.84;79.16
58967;BME280;44744;51.894;5.080;2023-07-20T01:43:09;101565.48;;;15.83;79.44
58967;BME280;44744;51.894;5.080;2023-07-20T01:44:10;101567.52;;;15.81;79.38
58967;BME280;44744;51.894;5.080;2023-07-20T01:45:10;101567.80;;;15.80;79.33
58967;BME280;44744;51.894;5.080;2023-07-20T01:46:10;101570.79;;;15.77;79.28
58967;BME280;44744;51.894;5.080;2023-07-20T01:47:10;101570.77;;;15.75;79.35
58967;BME280;44744;51.894;5.080;2023-07-20T01:48:10;101571.74;;;15.74;79.46
58967;BME280;44744;51.894;5.080;2023-07-20T01:49:11;101569.86;;;15.73;79.39
58967;BME280;44744;51.894;5.080;2023-07-20T01:50:11;101572.58;;;15.72;79.45
58967;BME280;44744;51.894;5.080;2023-07-20T01:51:11;101573.60;;;15.69;79.48
58967;BME280;44744;51.894;5.080;2023-07-20T01:52:11;101571.02;;;15.68;79.33
58967;BME280;44744;51.894;5.080;2023-07-20T01:53:11;101572.14;;;15.67;79.42
58967;BME280;44744;51.894;5.080;2023-07-20T01:54:11;101572.58;;;15.66;79.46
58967;BME280;44744;51.894;5.080;2023-07-20T01:55:11;101574.25;;;15.65;79.49
58967;BME280;44744;51.894;5.080;2023-07-20T01:56:12;101572.64;;;15.65;79.39
58967;BME280;44744;51.894;5.080;2023-07-20T01:57:12;101571.64;;;15.64;79.49
58967;BME280;44744;51.894;5.080;2023-07-20T01:58:12;101573.31;;;15.63;79.60
58967;BME280;44744;51.894;5.080;2023-07-20T01:59:12;101572.81;;;15.62;79.42
58967;BME280;44744;51.894;5.080;2023-07-20T02:00:12;101574.66;;;15.62;79.44
58967;BME280;44744;51.894;5.080;2023-07-20T02:01:12;101574.70;;;15.61;79.35
58967;BME280;44744;51.894;5.080;2023-07-20T02:02:13;101574.20;;;15.60;79.47
58967;BME280;44744;51.894;5.080;2023-07-20T02:03:13;101576.52;;;15.60;79.41
58967;BME280;44744;51.894;5.080;2023-07-20T02:04:13;101579.39;;;15.60;79.39
58967;BME280;44744;51.894;5.080;2023-07-20T02:05:13;101584.02;;;15.60;79.42
58967;BME280;44744;51.894;5.080;2023-07-20T02:06:13;101586.71;;;15.60;79.39
58967;BME280;44744;51.894;5.080;2023-07-20T02:07:14;101586.06;;;15.59;79.16
58967;BME280;44744;51.894;5.080;2023-07-20T02:08:14;101588.38;;;15.59;79.42
58967;BME280;44744;51.894;5.080;2023-07-20T02:09:14;101585.77;;;15.58;79.40
58967;BME280;44744;51.894;5.080;2023-07-20T02:10:14;101588.37;;;15.56;79.02
58967;BME280;44744;51.894;5.080;2023-07-20T02:11:14;101584.36;;;15.55;79.20
58967;BME280;44744;51.894;5.080;2023-07-20T02:12:14;101589.39;;;15.54;79.31
58967;BME280;44744;51.894;5.080;2023-07-20T02:13:15;101592.11;;;15.53;79.33
58967;BME280;44744;51.894;5.080;2023-07-20T02:14:15;101591.80;;;15.53;79.19
58967;BME280;44744;51.894;5.080;2023-07-20T02:15:15;101590.17;;;15.53;79.26
58967;BME280;44744;51.894;5.080;2023-07-20T02:16:15;101591.95;;;15.53;79.19
58967;BME280;44744;51.894;5.080;2023-07-20T02:17:15;101593.58;;;15.52;79.25
58967;BME280;44744;51.894;5.080;2023-07-20T02:18:15;101591.09;;;15.53;79.36
58967;BME280;44744;51.894;5.080;2023-07-20T02:19:16;101590.49;;;15.54;79.26
58967;BME280;44744;51.894;5.080;2023-07-20T02:20:16;101589.59;;;15.54;79.26
58967;BME280;44744;51.894;5.080;2023-07-20T02:21:16;101589.77;;;15.54;79.16
58967;BME280;44744;51.894;5.080;2023-07-20T02:22:16;101587.79;;;15.54;79.35
58967;BME280;44744;51.894;5.080;2023-07-20T02:23:16;101590.09;;;15.55;79.39
58967;BME280;44744;51.894;5.080;2023-07-20T02:24:16;101588.52;;;15.54;79.27
58967;BME280;44744;51.894;5.080;2023-07-20T02:25:16;101589.48;;;15.53;79.38
58967;BME280;44744;51.894;5.080;2023-07-20T02:26:17;101589.55;;;15.52;79.30
58967;BME280;44744;51.894;5.080;2023-07-20T02:27:17;101588.89;;;15.51;79.36
58967;BME280;44744;51.894;5.080;2023-07-20T02:28:17;101588.24;;;15.50;79.17
58967;BME280;44744;51.894;5.080;2023-07-20T02:29:17;101588.45;;;15.49;79.19
58967;BME280;44744;51.894;5.080;2023-07-20T02:30:17;101592.54;;;15.49;79.14
58967;BME280;44744;51.894;5.080;2023-07-20T02:31:17;101593.11;;;15.49;79.39
58967;BME280;44744;51.894;5.080;2023-07-20T02:32:17;101590.63;;;15.49;79.30
58967;BME280;44744;51.894;5.080;2023-07-20T02:33:18;101594.42;;;15.48;79.11
58967;BME280;44744;51.894;5.080;2023-07-20T02:34:18;101592.93;;;15.46;79.10
58967;BME280;44744;51.894;5.080;2023-07-20T02:35:18;101591.94;;;15.45;78.94
58967;BME280;44744;51.894;5.080;2023-07-20T02:36:18;101593.16;;;15.43;79.02
58967;BME280;44744;51.894;5.080;2023-07-20T02:37:18;101595.11;;;15.40;78.87
58967;BME280;44744;51.894;5.080;2023-07-20T02:38:18;101595.77;;;15.38;79.01
58967;BME280;44744;51.894;5.080;2023-07-20T02:39:18;101596.58;;;15.36;78.94
58967;BME280;44744;51.894;5.080;2023-07-20T02:40:18;101594.33;;;15.35;79.10
58967;BME280;44744;51.894;5.080;2023-07-20T02:41:19;101594.40;;;15.34;79.07
58967;BME280;44744;51.894;5.080;2023-07-20T02:42:19;101595.38;;;15.33;78.99
58967;BME280;44744;51.894;5.080;2023-07-20T02:43:19;101598.31;;;15.31;79.19
58967;BME280;44744;51.894;5.080;2023-07-20T02:44:19;101596.41;;;15.30;79.07
58967;BME280;44744;51.894;5.080;2023-07-20T02:45:19;101599.36;;;15.29;79.04
58967;BME280;44744;51.894;5.080;2023-07-20T02:46:20;101596.95;;;15.28;78.95
58967;BME280;44744;51.894;5.080;2023-07-20T02:47:20;101597.94;;;15.26;79.17
58967;BME280;44744;51.894;5.080;2023-07-20T02:48:20;101598.02;;;15.25;78.89
58967;BME280;44744;51.894;5.080;2023-07-20T02:49:20;101599.39;;;15.23;79.14
58967;BME280;44744;51.894;5.080;2023-07-20T02:50:20;101596.36;;;15.23;79.24
58967;BME280;44744;51.894;5.080;2023-07-20T02:51:20;101600.67;;;15.25;79.28
58967;BME280;44744;51.894;5.080;2023-07-20T02:52:20;101596.96;;;15.25;79.42
58967;BME280;44744;51.894;5.080;2023-07-20T02:53:20;101598.84;;;15.23;79.18
58967;BME280;44744;51.894;5.080;2023-07-20T02:54:21;101600.15;;;15.22;79.18
58967;BME280;44744;51.894;5.080;2023-07-20T02:55:21;101599.73;;;15.20;79.21
58967;BME280;44744;51.894;5.080;2023-07-20T02:56:21;101602.44;;;15.19;79.28
58967;BME280;44744;51.894;5.080;2023-07-20T02:57:21;101601.20;;;15.19;79.05
58967;BME280;44744;51.894;5.080;2023-07-20T02:58:21;101603.64;;;15.17;79.14
58967;BME280;44744;51.894;5.080;2023-07-20T02:59:21;101603.19;;;15.16;79.23
58967;BME280;44744;51.894;5.080;2023-07-20T03:00:21;101604.56;;;15.14;79.11
58967;BME280;44744;51.894;5.080;2023-07-20T03:01:22;101604.45;;;15.13;79.36
58967;BME280;44744;51.894;5.080;2023-07-20T03:02:22;101602.75;;;15.12;79.20
58967;BME280;44744;51.894;5.080;2023-07-20T03:03:22;101605.36;;;15.10;79.34
58967;BME280;44744;51.894;5.080;2023-07-20T03:04:22;101609.89;;;15.09;79.31
58967;BME280;44744;51.894;5.080;2023-07-20T03:05:22;101608.27;;;15.06;79.37
58967;BME280;44744;51.894;5.080;2023-07-20T03:06:23;101608.00;;;15.05;79.26
58967;BME280;44744;51.894;5.080;2023-07-20T03:07:23;101615.02;;;15.04;79.27
58967;BME280;44744;51.894;5.080;2023-07-20T03:08:23;101614.92;;;15.02;79.50
58967;BME280;44744;51.894;5.080;2023-07-20T03:09:23;101618.04;;;15.01;79.49
58967;BME280;44744;51.894;5.080;2023-07-20T03:10:23;101615.00;;;15.01;79.66
58967;BME280;44744;51.894;5.080;2023-07-20T03:11:23;101615.23;;;15.00;79.48
58967;BME280;44744;51.894;5.080;2023-07-20T03:12:24;101615.97;;;14.99;79.63
58967;BME280;44744;51.894;5.080;2023-07-20T03:13:24;101613.23;;;14.98;79.48
58967;BME280;44744;51.894;5.080;2023-07-20T03:14:24;101614.31;;;14.97;79.67
58967;BME280;44744;51.894;5.080;2023-07-20T03:15:24;101612.85;;;14.95;79.40
58967;BME280;44744;51.894;5.080;2023-07-20T03:16:24;101615.77;;;14.94;79.47
58967;BME280;44744;51.894;5.080;2023-07-20T03:17:24;101615.16;;;14.92;79.39
58967;BME280;44744;51.894;5.080;2023-07-20T03:18:24;101617.73;;;14.91;79.55
58967;BME280;44744;51.894;5.080;2023-07-20T03:19:25;101620.65;;;14.90;79.39
58967;BME280;44744;51.894;5.080;2023-07-20T03:20:25;101614.55;;;14.88;79.41
58967;BME280;44744;51.894;5.080;2023-07-20T03:21:25;101618.35;;;14.87;79.68
58967;BME280;44744;51.894;5.080;2023-07-20T03:22:25;101619.34;;;14.85;79.52
58967;BME280;44744;51.894;5.080;2023-07-20T03:23:25;101620.48;;;14.83;79.47
58967;BME280;44744;51.894;5.080;2023-07-20T03:24:25;101622.13;;;14.83;79.40
58967;BME280;44744;51.894;5.080;2023-07-20T03:25:25;101627.55;;;14.82;79.48
58967;BME280;44744;51.894;5.080;2023-07-20T03:26:26;101626.92;;;14.80;79.41
58967;BME280;44744;51.894;5.080;2023-07-20T03:27:26;101630.56;;;14.79;79.38
58967;BME280;44744;51.894;5.080;2023-07-20T03:28:26;101628.73;;;14.77;79.29
58967;BME280;44744;51.894;5.080;2023-07-20T03:29:26;101631.30;;;14.76;79.39
58967;BME280;44744;51.894;5.080;2023-07-20T03:30:26;101631.02;;;14.74;79.33
58967;BME280;44744;51.894;5.080;2023-07-20T03:31:26;101629.56;;;14.72;79.29
58967;BME280;44744;51.894;5.080;2023-07-20T03:32:27;101628.60;;;14.70;79.29
58967;BME280;44744;51.894;5.080;2023-07-20T03:33:30;101635.25;;;14.69;79.40
58967;BME280;44744;51.894;5.080;2023-07-20T03:34:30;101629.59;;;14.68;79.28
58967;BME280;44744;51.894;5.080;2023-07-20T03:35:36;101630.67;;;14.68;79.44
58967;BME280;44744;51.894;5.080;2023-07-20T03:36:36;101632.45;;;14.68;79.41
58967;BME280;44744;51.894;5.080;2023-07-20T03:37:36;101632.60;;;14.69;79.37
58967;BME280;44744;51.894;5.080;2023-07-20T03:38:36;101632.10;;;14.68;79.57
58967;BME280;44744;51.894;5.080;2023-07-20T03:39:37;101633.77;;;14.67;79.30
58967;BME280;44744;51.894;5.080;2023-07-20T03:40:37;101631.61;;;14.64;79.36
58967;BME280;44744;51.894;5.080;2023-07-20T03:41:37;101630.99;;;14.63;79.20
58967;BME280;44744;51.894;5.080;2023-07-20T03:42:37;101628.23;;;14.61;79.20
58967;BME280;44744;51.894;5.080;2023-07-20T03:43:37;101628.98;;;14.60;79.31
58967;BME280;44744;51.894;5.080;2023-07-20T03:44:37;101631.85;;;14.60;79.35
58967;BME280;44744;51.894;5.080;2023-07-20T03:45:37;101628.76;;;14.58;79.22
58967;BME280;44744;51.894;5.080;2023-07-20T03:46:40;101627.27;;;14.56;79.44
58967;BME280;44744;51.894;5.080;2023-07-20T03:47:40;101627.66;;;14.55;79.37
58967;BME280;44744;51.894;5.080;2023-07-20T03:48:40;101628.94;;;14.55;79.33
58967;BME280;44744;51.894;5.080;2023-07-20T03:49:41;101631.49;;;14.54;79.46
58967;BME280;44744;51.894;5.080;2023-07-20T03:50:41;101632.46;;;14.53;79.36
58967;BME280;44744;51.894;5.080;2023-07-20T03:54:39;101638.11;;;14.50;79.33
58967;BME280;44744;51.894;5.080;2023-07-20T03:55:39;101638.88;;;14.49;79.40
58967;BME280;44744;51.894;5.080;2023-07-20T03:56:40;101637.39;;;14.47;79.38
58967;BME280;44744;51.894;5.080;2023-07-20T03:57:40;101638.99;;;14.47;79.41
58967;BME280;44744;51.894;5.080;2023-07-20T03:58:40;101637.17;;;14.48;79.57
58967;BME280;44744;51.894;5.080;2023-07-20T03:59:44;101635.91;;;14.48;79.56
58967;BME280;44744;51.894;5.080;2023-07-20T04:00:48;101636.95;;;14.49;79.66
58967;BME280;44744;51.894;5.080;2023-07-20T04:01:48;101641.35;;;14.49;79.79
58967;BME280;44744;51.894;5.080;2023-07-20T04:02:49;101633.66;;;14.50;79.72
58967;BME280;44744;51.894;5.080;2023-07-20T04:03:49;101636.23;;;14.49;79.40
58967;BME280;44744;51.894;5.080;2023-07-20T04:04:49;101638.40;;;14.48;79.47
58967;BME280;44744;51.894;5.080;2023-07-20T04:05:49;101635.07;;;14.47;79.73
58967;BME280;44744;51.894;5.080;2023-07-20T04:06:49;101634.87;;;14.48;79.66
58967;BME280;44744;51.894;5.080;2023-07-20T04:07:49;101634.98;;;14.49;79.65
58967;BME280;44744;51.894;5.080;2023-07-20T04:08:50;101636.50;;;14.50;79.65
58967;BME280;44744;51.894;5.080;2023-07-20T04:09:50;101638.42;;;14.51;79.76
58967;BME280;44744;51.894;5.080;2023-07-20T04:10:50;101636.89;;;14.49;79.60
58967;BME280;44744;51.894;5.080;2023-07-20T04:11:50;101638.71;;;14.49;79.70
58967;BME280;44744;51.894;5.080;2023-07-20T04:12:50;101637.63;;;14.49;79.75
58967;BME280;44744;51.894;5.080;2023-07-20T04:13:50;101636.64;;;14.48;79.67
58967;BME280;44744;51.894;5.080;2023-07-20T04:14:50;101637.70;;;14.48;79.56
58967;BME280;44744;51.894;5.080;2023-07-20T04:15:51;101639.65;;;14.48;79.53
58967;BME280;44744;51.894;5.080;2023-07-20T04:16:51;101636.10;;;14.48;79.75
58967;BME280;44744;51.894;5.080;2023-07-20T04:17:51;101636.52;;;14.47;79.63
58967;BME280;44744;51.894;5.080;2023-07-20T04:18:51;101633.91;;;14.46;79.35
58967;BME280;44744;51.894;5.080;2023-07-20T04:19:51;101634.00;;;14.44;79.60
58967;BME280;44744;51.894;5.080;2023-07-20T04:20:52;101635.11;;;14.44;79.59
58967;BME280;44744;51.894;5.080;2023-07-20T04:21:52;101634.20;;;14.44;79.59
58967;BME280;44744;51.894;5.080;2023-07-20T04:22:52;101633.16;;;14.44;79.54
58967;BME280;44744;51.894;5.080;2023-07-20T04:23:52;101632.85;;;14.43;79.60
58967;BME280;44744;51.894;5.080;2023-07-20T04:24:52;101634.61;;;14.43;79.57
58967;BME280;44744;51.894;5.080;2023-07-20T04:25:52;101635.84;;;14.44;79.72
58967;BME280;44744;51.894;5.080;2023-07-20T04:26:52;101637.70;;;14.42;79.59
58967;BME280;44744;51.894;5.080;2023-07-20T04:27:53;101635.27;;;14.41;79.54
58967;BME280;44744;51.894;5.080;2023-07-20T04:28:53;101640.65;;;14.41;79.67
58967;BME280;44744;51.894;5.080;2023-07-20T04:29:53;101640.70;;;14.40;79.71
58967;BME280;44744;51.894;5.080;2023-07-20T04:30:53;101638.95;;;14.39;79.43
58967;BME280;44744;51.894;5.080;2023-07-20T04:31:53;101640.74;;;14.39;79.68
58967;BME280;44744;51.894;5.080;2023-07-20T04:32:53;101641.27;;;14.39;79.68
58967;BME280;44744;51.894;5.080;2023-07-20T04:33:53;101641.66;;;14.38;79.87
58967;BME280;44744;51.894;5.080;2023-07-20T04:34:54;101642.05;;;14.38;79.77
58967;BME280;44744;51.894;5.080;2023-07-20T04:35:54;101638.89;;;14.37;79.72
58967;BME280;44744;51.894;5.080;2023-07-20T04:36:54;101643.36;;;14.37;79.73
58967;BME280;44744;51.894;5.080;2023-07-20T04:37:54;101644.63;;;14.36;79.75
58967;BME280;44744;51.894;5.080;2023-07-20T04:38:54;101643.02;;;14.36;79.88
58967;BME280;44744;51.894;5.080;2023-07-20T04:39:54;101642.86;;;14.36;79.75
58967;BME280;44744;51.894;5.080;2023-07-20T04:40:54;101643.06;;;14.36;79.82
58967;BME280;44744;51.894;5.080;2023-07-20T04:41:55;101642.32;;;14.36;79.85
58967;BME280;44744;51.894;5.080;2023-07-20T04:42:58;101645.38;;;14.36;79.82
58967;BME280;44744;51.894;5.080;2023-07-20T04:43:58;101650.36;;;14.36;79.73
58967;BME280;44744;51.894;5.080;2023-07-20T04:44:58;101652.86;;;14.35;79.82
58967;BME280;44744;51.894;5.080;2023-07-20T04:45:58;101649.52;;;14.34;79.82
58967;BME280;44744;51.894;5.080;2023-07-20T04:46:58;101656.51;;;14.34;79.86
58967;BME280;44744;51.894;5.080;2023-07-20T04:47:58;101653.55;;;14.32;79.76
58967;BME280;44744;51.894;5.080;2023-07-20T04:48:58;101658.02;;;14.32;79.72
58967;BME280;44744;51.894;5.080;2023-07-20T04:49:59;101655.58;;;14.31;79.96
58967;BME280;44744;51.894;5.080;2023-07-20T04:50:59;101658.08;;;14.31;79.97
58967;BME280;44744;51.894;5.080;2023-07-20T04:51:59;101661.46;;;14.31;79.86
58967;BME280;44744;51.894;5.080;2023-07-20T04:52:59;101657.56;;;14.31;79.87
58967;BME280;44744;51.894;5.080;2023-07-20T04:53:59;101660.26;;;14.30;79.74
58967;BME280;44744;51.894;5.080;2023-07-20T04:54:59;101660.15;;;14.29;79.80
58967;BME280;44744;51.894;5.080;2023-07-20T04:55:59;101654.86;;;14.28;79.86
58967;BME280;44744;51.894;5.080;2023-07-20T04:57:00;101658.78;;;14.28;79.72
58967;BME280;44744;51.894;5.080;2023-07-20T04:58:00;101656.54;;;14.27;79.70
58967;BME280;44744;51.894;5.080;2023-07-20T04:59:01;101656.58;;;14.26;79.91
58967;BME280;44744;51.894;5.080;2023-07-20T05:00:04;101654.48;;;14.26;79.78
58967;BME280;44744;51.894;5.080;2023-07-20T05:01:04;101656.11;;;14.25;79.77
58967;BME280;44744;51.894;5.080;2023-07-20T05:02:04;101654.83;;;14.26;79.93
58967;BME280;44744;51.894;5.080;2023-07-20T05:03:05;101654.80;;;14.26;79.76
58967;BME280;44744;51.894;5.080;2023-07-20T05:04:05;101654.23;;;14.27;80.00
58967;BME280;44744;51.894;5.080;2023-07-20T05:05:05;101649.42;;;14.27;80.01
58967;BME280;44744;51.894;5.080;2023-07-20T05:06:05;101648.48;;;14.28;80.22
58967;BME280;44744;51.894;5.080;2023-07-20T05:07:05;101647.54;;;14.29;80.20
58967;BME280;44744;51.894;5.080;2023-07-20T05:08:06;101646.48;;;14.29;80.11
58967;BME280;44744;51.894;5.080;2023-07-20T05:09:06;101646.45;;;14.29;80.09
58967;BME280;44744;51.894;5.080;2023-07-20T05:10:06;101646.05;;;14.30;80.07
58967;BME280;44744;51.894;5.080;2023-07-20T05:11:06;101646.21;;;14.30;80.30
58967;BME280;44744;51.894;5.080;2023-07-20T05:12:07;101645.65;;;14.31;80.19
58967;BME280;44744;51.894;5.080;2023-07-20T05:13:07;101647.04;;;14.31;80.16
58967;BME280;44744;51.894;5.080;2023-07-20T05:14:07;101647.60;;;14.31;80.07
58967;BME280;44744;51.894;5.080;2023-07-20T05:15:07;101650.79;;;14.31;80.09
58967;BME280;44744;51.894;5.080;2023-07-20T05:16:07;101650.98;;;14.31;80.16
58967;BME280;44744;51.894;5.080;2023-07-20T05:17:07;101651.45;;;14.32;80.28
58967;BME280;44744;51.894;5.080;2023-07-20T05:18:08;101651.80;;;14.32;80.27
58967;BME280;44744;51.894;5.080;2023-07-20T05:19:08;101650.89;;;14.32;80.41
58967;BME280;44744;51.894;5.080;2023-07-20T05:20:08;101649.10;;;14.32;80.35
58967;BME280;44744;51.894;5.080;2023-07-20T05:21:08;101650.69;;;14.33;80.42
58967;BME280;44744;51.894;5.080;2023-07-20T05:22:08;101649.27;;;14.33;80.30
58967;BME280;44744;51.894;5.080;2023-07-20T05:23:08;101654.02;;;14.34;80.28
58967;BME280;44744;51.894;5.080;2023-07-20T05:24:09;101652.58;;;14.34;80.43
58967;BME280;44744;51.894;5.080;2023-07-20T05:25:09;101658.08;;;14.34;80.36
58967;BME280;44744;51.894;5.080;2023-07-20T05:26:10;101658.05;;;14.34;80.44
58967;BME280;44744;51.894;5.080;2023-07-20T05:27:10;101658.46;;;14.34;80.43